Bewolking Meer informatie Parkstad Weather Satellite


Neerslagradar Meer informatie Parkstad Rain Snow Radar


Onweersbuien Meer informatie Parkstad Lighntning


24/7 Weercamera Meer informatie Parkstad Weathercam


Natuurbrandrisico
CBI







Het weer levert geen direct gevaar op in Parkstad.    Er zijn geen waarschuwingen afgegeven voor Parkstad (045)

METAR rapporten vliegvelden

   
EHBK - Beek Nederland
Gewijzigd: 03-06-2020 04:25
Gedeeltelijk bewolkt  
Gedeeltelijk bewolkt  
   Wind: ZZW 9.3 km/h
Wind: ZZW 9.3 km/h
Temperatuur: 13°C
Dauwpunt: 8°C
Vochtigheid: 72%
Barometer: 1009 hPa
Satelliet beelden: Gedeeltelijk bewolkt
Zicht: meer dan 10 km
Bewolking: Gedeeltelijk bewolkt
EHBK 030225Z AUTO 21005KT 9999 NSC 13/08 Q1009
EHBK - Maastricht Nederland
Gewijzigd: 03-06-2020 04:25
Gedeeltelijk bewolkt  
Gedeeltelijk bewolkt  
   Wind: ZZW 9.3 km/h
Wind: ZZW 9.3 km/h
Temperatuur: 13°C
Dauwpunt: 8°C
Vochtigheid: 72%
Barometer: 1009 hPa
Satelliet beelden: Gedeeltelijk bewolkt
Zicht: meer dan 10 km
Bewolking: Gedeeltelijk bewolkt
EHBK 030225Z AUTO 21005KT 9999 NSC 13/08 Q1009
EBLG - Liège België
Gewijzigd: 03-06-2020 04:20
Helder  
Helder  
   Wind: Westen 5.6 km/h
Wind: Westen 5.6 km/h
Temperatuur: 14°C
Dauwpunt: 8°C
Vochtigheid: 67%
Barometer: 1009 hPa
Zicht: meer dan 10 km
Bewolking: Helder
EBLG 030220Z 27003KT CAVOK 14/08 Q1009 NOSIG
EDDK - Köln/Bonn Duitsland
Gewijzigd: 03-06-2020 04:20
Helder  
Helder  
   Wind: varieert 1.9 km/h
Wind: varieert 1.9 km/h
Temperatuur: 15°C
Dauwpunt: 10°C
Vochtigheid: 72%
Barometer: 1009 hPa
Zicht: meer dan 10 km
Bewolking: Helder
EDDK 030220Z VRB01KT CAVOK 15/10 Q1009 NOSIG
EDDL - Düsseldorf Duitsland
Gewijzigd: 03-06-2020 04:20
Helder  
Helder  
   Wind: Westen 5.6 km/h
Wind: Westen 5.6 km/h
Temperatuur: 15°C
Dauwpunt: 10°C
Vochtigheid: 72%
Barometer: 1008 hPa
Zicht: meer dan 10 km
Bewolking: Helder
EDDL 030220Z 26003KT 240V310 CAVOK 15/10 Q1008 NOSIG
EHEH - Eindhoven Nederland
Gewijzigd: 03-06-2020 04:25
Nevel, Bewolking  
Nevel, Bewolking  
   Wind: WZW 5.6 km/h
Wind: WZW 5.6 km/h
Temperatuur: 11°C
Dauwpunt: 10°C
Vochtigheid: 94%
Barometer: 1009 hPa
Satelliet beelden: Bewolking
Zicht: 8 km
Bewolking: Bewolking 5182 m
EHEH 030225Z AUTO 24003KT 8000 BR OVC170 11/10 Q1009 BLU
ELLX - Luxemburg Luxemburg
Gewijzigd: 03-06-2020 04:20
Helder  
Helder  
   Wind: NO 7.4 km/h
Wind: NO 7.4 km/h
Temperatuur: 17°C
Dauwpunt: 6°C
Vochtigheid: 49%
Barometer: 1010 hPa
Satelliet beelden: Helder
Zicht: meer dan 10 km
Bewolking: Helder
ELLX 030220Z AUTO 05004KT 010V100 9999 NCD 17/06 Q1010 NOSIG
EGLL - London England
Gewijzigd: 03-06-2020 04:20
Helder  
Helder  
   Wind: varieert 3.7 km/h
Wind: varieert 3.7 km/h
Temperatuur: 15°C
Dauwpunt: 8°C
Vochtigheid: 63%
Barometer: 1011 hPa
Satelliet beelden: Helder
Zicht: meer dan 10 km
Bewolking: Helder
EGLL 030220Z AUTO VRB02KT 9999 NCD 15/08 Q1011 NOSIG
EBAW - Antwerpen België
Gewijzigd: 03-06-2020 04:20
Nevel, Helder  
Nevel, Helder  
   Wind: Westen 7.4 km/h
Wind: Westen 7.4 km/h
Temperatuur: 14°C
Dauwpunt: 12°C
Vochtigheid: 88%
Barometer: 1009 hPa
Satelliet beelden: Helder
Zicht: 5 km
Bewolking: Helder
EBAW 030220Z AUTO 26004KT 4800 BR NCD 14/12 Q1009
EBOS - Oostende België
Gewijzigd: 03-06-2020 04:20
Gedeeltelijk bewolkt  
Gedeeltelijk bewolkt  
   Wind: NW 9.3 km/h
Wind: NW 9.3 km/h
Temperatuur: 12°C
Dauwpunt: 11°C
Vochtigheid: 94%
Barometer: 1010 hPa
Satelliet beelden: Gedeeltelijk bewolkt
Zicht: 9 km
Bewolking: Gedeeltelijk bewolkt
EBOS 030220Z 31005KT 9000 NSC 12/11 Q1010 TEMPO 4000
LEAL - La Nucia Spanje
Gewijzigd: 03-06-2020 04:30
Helder  
Helder  
   Wind: Westen 7.4 km/h
Wind: Westen 7.4 km/h
Temperatuur: 17°C
Dauwpunt: 15°C
Vochtigheid: 88%
Barometer: 1012 hPa
Zicht: meer dan 10 km
Bewolking: Helder
LEAL 030230Z 27004KT CAVOK 17/15 Q1012 NOSIG
TNCA - Oranjestad Aruba
Gewijzigd: 03-06-2020 04:00
Licht bewolkt  
Licht bewolkt  
   Wind: Oosten 27.8 km/h
Wind: Oosten 27.8 km/h
Temperatuur: 27°C
Gevoelstemperatuur: 29°C
Dauwpunt: 23°C
Vochtigheid: 79%
Barometer: 1013 hPa
Satelliet beelden: Licht bewolkt
Zicht: meer dan 10 km
Bewolking: Licht bewolkt 579 m
TNCA 030200Z 09015KT 9999 FEW019 27/23 Q1013 NOSIG
TNCC - Willemstad Curacao
Gewijzigd: 03-06-2020 04:00
Licht bewolkt  
Licht bewolkt  
   Wind: Oosten 22.2 km/h
Wind: Oosten 22.2 km/h
Temperatuur: 27°C
Gevoelstemperatuur: 29°C
Dauwpunt: 22°C
Vochtigheid: 74%
Barometer: 1013 hPa
Satelliet beelden: Licht bewolkt
Zicht: meer dan 10 km
Bewolking: Licht bewolkt 549 m
TNCC 030200Z 10012KT 9999 FEW018 27/22 Q1013 NOSIG=
MTPP - Port au Prince Haitië
Gewijzigd: 03-06-2020 03:59
  
  
   Wind: Oosten 22.2 km/h
Wind: Oosten 22.2 km/h
Temperatuur: 29°C
Gevoelstemperatuur: 32°C
Dauwpunt: 22°C
Vochtigheid: 66%
Barometer: 1015 hPa
Zicht: 9 km
MTPP 030159Z AUTO 10012KT 9000 ////// 29/22 Q1015 A2997 NOSIG
ENVA - Trondheim Noorwegen
Gewijzigd: 03-06-2020 04:20
Bewolking  
Bewolking  
   Wind: NO 5.6 km/h
Wind: NO 5.6 km/h
Temperatuur: 12°C
Dauwpunt: 8°C
Vochtigheid: 77%
Barometer: 1015 hPa
Satelliet beelden: Bewolking
Zicht: meer dan 10 km
Bewolking: Bewolking 610 m
ENVA 030220Z AUTO 04003KT 360V080 9999 OVC020/// 12/08 Q1015 RMK WIND 670FT 05006KT
ENBO - Bodø Noorwegen
Gewijzigd: 03-06-2020 03:50
Bewolking  
Bewolking  
   Wind: NW 13 km/h
Wind: NW 13 km/h
Temperatuur: 7°C
Voelt als: 4°C
Dauwpunt: 4°C
Vochtigheid: 81%
Barometer: 1018 hPa
Satelliet beelden: Bewolking
Zicht: meer dan 10 km
Bewolking: Licht bewolkt 244 m,
Gedeeltelijk bewolkt 457 m,
Bewolking 610 m
ENBO 030150Z 31007KT 9999 FEW008 SCT015 OVC020 07/04 Q1018
ETNG - Geilenkirchen Duitsland
Gewijzigd: 03-06-2020 03:50
Helder  
Helder  
   Wind: ZW 7.4 km/h
Wind: ZW 7.4 km/h
Temperatuur: 15°C
Dauwpunt: 8°C
Vochtigheid: 63%
Barometer: 1009 hPa
Zicht: meer dan 10 km
Bewolking: Helder
ETNG 030150Z 22004KT CAVOK 15/08 Q1009
 

Script ontwikkeld door  Saratoga-weather.org Aangepast voor de template door  Weerstation Leuven

U vindt ons ook hier:

Het Weer Aktueel

WOW Nederland KNMI

Vereniging voor Weerkunde en Klimatologie

UK Met Office Weather Observation Website (WOW)

WeatherCloud

Weather Underground

Awekas

Weatherlink IP

HAMweather, WeatherForYou, PWS Weather

Citizen Weather Observer Program (CWOP)

Apparatuur in gebruik:

Hardwareleverancier
Weerhuisje

Weerstation
Vantage Pro2+ UV

Weercomputer's
alix3d2 & wl330n

Weerprogramma's
Smartbedded

Satelliet NOAA's
WRX137 & KX137

Satelliet Eumetsat
Ayecka SR1 & Triax

Bliksemdetectie
Boltek StormTracker

Webleverancier
F-Service

Weerhuisje

Vantage Pro2+ UV

alix3d2 & wl330n

Smartbedded

WRX137 & KX137

Ayecka SR1 & Triax

Boltek StormTracker

F-Service